Domov               UVHVVR             MKGP            O straneh              
ZDRAVSTVENO VARSTVO RASTLIN
  MREŽA AGROMET. POSTAJ
 ► PROGNOSTIČNA OBVESTILA
AGROMETEOROLOŠKI PODATKI -
ARSO
OBVLADOVANJE TVEGANJ ZARADI
NEUGODNIH VREMENSKIH RAZMER
  ► NARAVNE NESREČE
  ► SUŠA/MOČA
  ► NAMAKANJE
  ► ŽLED (gozdarstvo)
KARTOGRAFSKI PRIKAZI
SPLETNE POVEZAVE
PROJEKTI IN PUBLIKACIJE

AGROMETEOROLOŠKA MREŽA: VREMENSKE POSTAJE IN FENOLOŠKA OPAZOVANJA

Pregled podatkov za lokacijo Zimica, meteorološka postaja 27472

Pregled senzorjev na lokaciji

ID Ime Zadnja
vrednost
Datum
zadnje
spremembe
Tip
senzorja
1712 Omočenost lista (U) 0 U 17.10.2017 14:00 A730WET
1713 Temperatura 2 m ( °C) 21,07 °C 17.10.2017 13:59 Generic -40 - +60 °C
1714 Relativna vlaga 2 m (% RH) 52,31 % RH 17.10.2017 13:59 Generic 0 - 100 %
1715 Padavine 0.2 mm (mm) 0 mm 17.10.2017 13:59 Generic 0.2 mm

Pregled podatkov zadnjih 24 ur

Zap.
št.
Datum in čas Zimica
Omočenost
lista
Padavine
0.2
mm
Relativna
vlaga
2
m
Temperatura
2
m
0 17.10.2017 13:00 0 0 52,31 21,07
1 17.10.2017 12:30 0 0 53,31 20,81
2 17.10.2017 12:00 0 0 52,19 20,66
3 17.10.2017 11:30 0 0 53,85 19,98
4 17.10.2017 11:00 0 0 54,26 20,2
5 17.10.2017 10:30 0 0 56,87 18,61
6 17.10.2017 10:00 0 0 64,3 17,73
7 17.10.2017 09:30 0 0 67,47 15,7
8 17.10.2017 09:00 0 0 75,31 14,75
9 17.10.2017 08:30 0 0 82,37 12,82
10 17.10.2017 08:00 0 0 99,93 10,5
11 17.10.2017 07:30 0 0 99,93 8,62
12 17.10.2017 07:00 0 0 99,93 7,18
13 17.10.2017 06:30 0 0 99,93 6,81
14 17.10.2017 06:00 0 0 99,93 7,52
15 17.10.2017 05:30 0 0 99,93 7,59
16 17.10.2017 05:00 0 0 99,93 8,16
17 17.10.2017 04:30 0 0 99,93 8,3
18 17.10.2017 04:00 0 0 99,93 8,42
19 17.10.2017 03:30 0 0 99,93 8,47
20 17.10.2017 03:00 0 0 99,93 8,77
21 17.10.2017 02:30 0 0 99,93 8,94
22 17.10.2017 02:00 0 0 99,93 8,79
23 17.10.2017 01:30 0 0 99,93 8,94
24 17.10.2017 01:00 0 0 99,93 8,91
25 17.10.2017 00:30 0 0 99,93 9,16
26 17.10.2017 00:00 0 0 99,93 9,52
27 16.10.2017 23:30 0 0 99,93 9,77
28 16.10.2017 23:00 0 0 99,93 9,57
29 16.10.2017 22:30 0 0 99,93 9,89
30 16.10.2017 22:00 0 0 99,93 10,09
31 16.10.2017 21:30 0 0 99,93 10,18
32 16.10.2017 21:00 0 0 99,93 10,28
33 16.10.2017 20:30 0 0 99,93 10,57
34 16.10.2017 20:00 0 0 97,51 10,94
35 16.10.2017 19:30 0 0 97,58 11,14
36 16.10.2017 19:00 0 0 95,12 11,7
37 16.10.2017 18:30 0 0 89,67 12,6
38 16.10.2017 18:00 0 0 84 13,85
39 16.10.2017 17:30 0 0 78,07 15,78
40 16.10.2017 17:00 0 0 69,84 18,51
41 16.10.2017 16:30 0 0 57,97 20,71
42 16.10.2017 16:00 0 0 41,76 22,93
43 16.10.2017 15:30 0 0 40,88 23,47
© 2011 Ministrstvo za kmetijstvo, gozdarstvo in prehrano. Vse pravice pridržane.